Time;durP1;ratioP1;P1;durP2;ratioP2;P2;SDS_P1;SDS_P2;PMS_P1;PMS_P2;Temp;Humidity;BMP_temperature;BMP_pressure;BME280_temperature;BME280_humidity;BME280_pressure;Samples;Min_cycle;Max_cycle;Signal;HPM_P1;HPM_P2
2023/05/27 00:02:18;;;;;;;11.50;6.55;;;17.80;99.90;;;;;;5030122;28;20046;-76
2023/05/27 00:04:45;;;;;;;11.30;7.03;;;17.70;99.90;;;;;;5032867;28;20049;-75
2023/05/27 00:07:12;;;;;;;9.95;6.95;;;17.70;99.90;;;;;;5032594;28;20060;-75
2023/05/27 00:09:39;;;;;;;12.15;6.55;;;17.70;99.90;;;;;;5032287;28;20042;-76
2023/05/27 00:12:05;;;;;;;8.80;5.72;;;17.60;99.90;;;;;;5031478;28;20053;-75
2023/05/27 00:14:32;;;;;;;12.68;6.43;;;17.60;99.90;;;;;;5032801;28;20061;-75
2023/05/27 00:17:01;;;;;;;14.05;7.18;;;17.50;99.90;;;;;;5032453;28;20049;-76
2023/05/27 00:19:29;;;;;;;11.00;6.80;;;17.50;99.90;;;;;;5033037;28;20072;-75
2023/05/27 00:21:56;;;;;;;12.55;7.05;;;17.40;99.90;;;;;;5033047;28;20048;-76
2023/05/27 00:24:23;;;;;;;11.90;6.72;;;17.30;99.90;;;;;;5033013;28;20120;-75
2023/05/27 00:26:49;;;;;;;10.48;6.68;;;17.30;99.90;;;;;;5032185;28;20073;-75
2023/05/27 00:29:16;;;;;;;10.02;6.70;;;17.20;99.90;;;;;;5031456;28;20084;-75
2023/05/27 00:31:43;;;;;;;11.30;6.22;;;17.20;99.90;;;;;;5032754;28;20053;-75
2023/05/27 00:34:10;;;;;;;11.23;6.88;;;17.10;99.90;;;;;;5032765;28;20072;-75
2023/05/27 00:36:37;;;;;;;10.27;6.22;;;17.10;99.90;;;;;;5032333;28;20041;-77
2023/05/27 00:39:05;;;;;;;11.07;6.97;;;17.10;99.90;;;;;;5032548;28;20497;-76
2023/05/27 00:41:32;;;;;;;10.50;6.57;;;17.00;99.90;;;;;;5032377;28;20125;-75
2023/05/27 00:44:00;;;;;;;11.25;7.05;;;17.00;99.90;;;;;;5031120;28;20120;-75
2023/05/27 00:46:27;;;;;;;9.38;6.47;;;16.90;99.90;;;;;;5031899;28;20083;-75
2023/05/27 00:48:54;;;;;;;10.85;6.57;;;16.90;99.90;;;;;;5032584;28;20042;-75
2023/05/27 00:51:21;;;;;;;9.18;6.55;;;16.80;99.90;;;;;;5032363;28;20425;-76
2023/05/27 00:53:48;;;;;;;12.98;6.97;;;16.80;99.90;;;;;;5030514;28;20133;-75
2023/05/27 00:56:15;;;;;;;10.00;6.65;;;16.70;99.90;;;;;;5032334;28;20049;-75
2023/05/27 00:58:43;;;;;;;12.55;7.20;;;16.70;99.90;;;;;;5027569;28;20050;-75
2023/05/27 01:01:10;;;;;;;8.48;6.65;;;16.60;99.90;;;;;;5031612;28;20076;-76
2023/05/27 01:03:38;;;;;;;11.35;7.05;;;16.60;99.90;;;;;;5032117;28;20037;-75
2023/05/27 01:06:28;;;;;;;14.02;7.78;;;16.50;99.90;;;;;;5029298;28;20464;-76
2023/05/27 01:09:07;;;;;;;12.77;7.00;;;16.50;99.90;;;;;;5030083;28;20046;-76
2023/05/27 01:11:47;;;;;;;12.35;7.72;;;16.40;99.90;;;;;;5031196;28;20049;-75
2023/05/27 01:14:16;;;;;;;11.10;7.53;;;16.40;99.90;;;;;;5028922;28;20111;-75
2023/05/27 01:16:46;;;;;;;9.73;7.32;;;16.30;99.90;;;;;;5031176;28;20089;-75
2023/05/27 01:19:16;;;;;;;10.25;6.90;;;16.30;99.90;;;;;;5032354;28;20041;-75
2023/05/27 01:21:47;;;;;;;11.38;6.55;;;16.30;99.90;;;;;;5031686;28;20052;-76
2023/05/27 01:24:14;;;;;;;12.88;7.43;;;16.30;99.90;;;;;;5031235;28;20077;-75
2023/05/27 01:26:42;;;;;;;11.75;7.50;;;16.20;99.90;;;;;;5029476;28;20049;-75
2023/05/27 01:29:09;;;;;;;11.02;7.63;;;16.20;99.90;;;;;;5029167;28;20041;-75
2023/05/27 01:31:46;;;;;;;12.15;7.13;;;16.10;99.90;;;;;;5031353;28;20536;-75
2023/05/27 01:34:21;;;;;;;9.43;6.43;;;16.10;99.90;;;;;;5028404;28;20052;-75
2023/05/27 01:36:54;;;;;;;9.05;7.03;;;16.00;99.90;;;;;;5031151;28;20158;-75
2023/05/27 01:39:23;;;;;;;14.25;8.65;;;16.00;99.90;;;;;;5029439;28;20128;-76
2023/05/27 01:41:51;;;;;;;15.82;7.80;;;16.00;99.90;;;;;;5031463;28;20088;-75
2023/05/27 01:44:20;;;;;;;11.02;7.15;;;15.90;99.90;;;;;;5031132;28;20053;-75
2023/05/27 01:46:46;;;;;;;9.95;7.60;;;15.90;99.90;;;;;;5030612;28;20128;-75
2023/05/27 01:49:13;;;;;;;12.18;7.35;;;15.90;99.90;;;;;;5031418;28;20100;-75
2023/05/27 01:51:40;;;;;;;9.07;6.80;;;15.80;99.90;;;;;;5031311;28;20103;-75
2023/05/27 01:54:07;;;;;;;10.55;7.20;;;15.80;99.90;;;;;;5031084;28;20124;-75
2023/05/27 01:56:33;;;;;;;11.00;6.88;;;15.80;99.90;;;;;;5029228;28;20517;-75
2023/05/27 01:59:00;;;;;;;10.60;6.63;;;15.70;99.90;;;;;;5031333;28;20049;-75
2023/05/27 02:01:28;;;;;;;9.60;6.70;;;15.70;99.90;;;;;;5028071;28;20049;-75
2023/05/27 02:03:55;;;;;;;9.77;6.75;;;15.70;99.90;;;;;;5031199;28;20049;-75
2023/05/27 02:06:22;;;;;;;13.27;7.45;;;15.60;99.90;;;;;;5030823;28;20042;-76
2023/05/27 02:08:49;;;;;;;12.93;7.15;;;15.60;99.90;;;;;;5030994;28;20128;-75
2023/05/27 02:11:16;;;;;;;12.20;7.55;;;15.60;99.90;;;;;;5031112;28;20115;-75
2023/05/27 02:13:43;;;;;;;10.65;7.20;;;15.60;99.90;;;;;;5028756;28;20475;-75
2023/05/27 02:16:09;;;;;;;12.68;7.18;;;15.50;99.90;;;;;;5031096;28;20049;-76
2023/05/27 02:18:36;;;;;;;14.65;7.40;;;15.50;99.90;;;;;;5030543;28;20061;-75
2023/05/27 02:21:05;;;;;;;13.23;6.82;;;15.40;99.90;;;;;;5031142;28;20045;-75
2023/05/27 02:23:33;;;;;;;14.33;6.87;;;15.40;99.90;;;;;;5031144;28;20081;-75
2023/05/27 02:26:00;;;;;;;10.45;7.25;;;15.40;99.90;;;;;;5028805;28;20288;-75
2023/05/27 02:28:27;;;;;;;11.38;7.40;;;15.40;99.90;;;;;;5030255;28;20049;-75
2023/05/27 02:30:54;;;;;;;11.93;6.75;;;15.30;99.90;;;;;;5030833;28;20156;-75
2023/05/27 02:33:21;;;;;;;13.50;7.85;;;15.30;99.90;;;;;;5030790;28;20045;-75
2023/05/27 02:35:47;;;;;;;12.50;7.05;;;15.20;99.90;;;;;;5030897;28;20060;-75
2023/05/27 02:38:15;;;;;;;12.82;7.38;;;15.20;99.90;;;;;;5030104;28;20440;-75
2023/05/27 02:40:41;;;;;;;10.63;6.85;;;15.20;99.90;;;;;;5030940;28;20129;-75
2023/05/27 02:43:08;;;;;;;12.25;6.65;;;15.20;99.90;;;;;;5029770;28;20077;-75
2023/05/27 02:45:35;;;;;;;12.45;7.05;;;15.10;99.90;;;;;;5030580;28;20083;-75
2023/05/27 02:48:02;;;;;;;11.05;6.82;;;15.10;99.90;;;;;;5030370;28;20099;-75
2023/05/27 02:50:29;;;;;;;13.73;7.03;;;15.10;99.90;;;;;;5030835;28;20416;-75
2023/05/27 02:52:56;;;;;;;15.73;7.45;;;15.10;99.90;;;;;;5030642;28;20469;-76
2023/05/27 02:55:22;;;;;;;10.95;6.75;;;15.00;99.90;;;;;;5030627;28;20077;-76
2023/05/27 02:57:50;;;;;;;14.80;7.45;;;15.00;99.90;;;;;;5028831;28;20045;-75
2023/05/27 03:00:17;;;;;;;12.75;7.72;;;15.00;99.90;;;;;;5031076;28;20059;-75
2023/05/27 03:02:44;;;;;;;12.15;7.50;;;15.00;99.90;;;;;;5030737;28;20085;-75
2023/05/27 03:05:11;;;;;;;11.40;6.95;;;15.00;99.90;;;;;;5027439;28;20445;-75
2023/05/27 03:07:38;;;;;;;9.43;6.60;;;14.90;99.90;;;;;;5029788;28;20084;-75
2023/05/27 03:10:05;;;;;;;10.55;6.47;;;14.90;99.90;;;;;;5030450;28;20710;-75
2023/05/27 03:12:32;;;;;;;10.77;6.72;;;14.90;99.90;;;;;;5029582;28;20164;-75
2023/05/27 03:14:59;;;;;;;11.48;6.78;;;14.90;99.90;;;;;;5030467;28;20125;-75
2023/05/27 03:17:26;;;;;;;11.68;6.65;;;14.80;99.90;;;;;;5030072;28;20420;-75
2023/05/27 03:19:53;;;;;;;13.27;6.38;;;14.80;99.90;;;;;;5030250;28;20053;-75
2023/05/27 03:22:20;;;;;;;12.52;7.13;;;14.80;99.90;;;;;;5030514;28;20056;-75
2023/05/27 03:24:47;;;;;;;15.80;7.43;;;14.80;99.90;;;;;;5030738;28;20045;-76
2023/05/27 03:27:13;;;;;;;15.90;7.10;;;14.70;99.90;;;;;;5032332;28;20037;-76
2023/05/27 03:29:40;;;;;;;11.52;7.20;;;14.70;99.90;;;;;;5034141;28;20485;-75
2023/05/27 03:32:07;;;;;;;11.88;7.05;;;14.70;99.90;;;;;;5033836;28;20084;-75
2023/05/27 03:34:34;;;;;;;11.73;7.20;;;14.70;99.90;;;;;;5033869;28;20516;-75
2023/05/27 03:37:01;;;;;;;10.05;6.78;;;14.60;99.90;;;;;;5033120;28;20505;-75
2023/05/27 03:39:28;;;;;;;11.35;6.82;;;14.60;99.90;;;;;;5033835;28;20595;-75
2023/05/27 03:41:55;;;;;;;10.32;7.00;;;14.60;99.90;;;;;;5033667;28;20136;-75
2023/05/27 03:44:22;;;;;;;10.63;6.45;;;14.60;99.90;;;;;;5033731;28;20495;-75
2023/05/27 03:46:48;;;;;;;11.90;6.78;;;14.50;99.90;;;;;;5034330;28;20045;-75
2023/05/27 03:49:16;;;;;;;12.18;6.35;;;14.50;99.90;;;;;;5030501;28;20226;-75
2023/05/27 03:51:42;;;;;;;13.57;6.80;;;14.50;99.90;;;;;;5033613;28;20433;-76
2023/05/27 03:54:09;;;;;;;13.93;7.47;;;14.50;99.90;;;;;;5033504;28;20132;-76
2023/05/27 03:56:36;;;;;;;16.42;6.60;;;14.50;99.90;;;;;;5032817;28;20045;-76
2023/05/27 03:59:02;;;;;;;14.00;7.40;;;14.40;99.90;;;;;;5033531;28;20071;-76
2023/05/27 04:01:29;;;;;;;12.00;6.43;;;14.40;99.90;;;;;;5029832;28;20041;-76
2023/05/27 04:03:56;;;;;;;12.05;7.18;;;14.40;99.90;;;;;;5044117;28;20093;-76
2023/05/27 04:06:23;;;;;;;12.43;6.78;;;14.40;99.90;;;;;;5033387;28;20168;-75
2023/05/27 04:08:50;;;;;;;10.23;6.45;;;14.40;99.90;;;;;;5033250;28;20095;-75
2023/05/27 04:11:16;;;;;;;12.02;6.20;;;14.40;99.90;;;;;;5033348;28;20077;-75
2023/05/27 04:13:46;;;;;;;12.20;6.43;;;14.30;99.90;;;;;;5031733;28;20053;-77
2023/05/27 04:16:13;;;;;;;13.18;6.63;;;14.40;99.90;;;;;;5033742;28;20552;-77
2023/05/27 04:18:40;;;;;;;13.63;7.40;;;14.30;99.90;;;;;;5032733;28;20067;-75
2023/05/27 04:21:08;;;;;;;13.02;6.38;;;14.40;99.90;;;;;;5032726;28;20085;-77
2023/05/27 04:23:35;;;;;;;13.25;6.35;;;14.40;99.90;;;;;;5033876;28;20042;-77
2023/05/27 04:26:02;;;;;;;10.85;6.60;;;14.40;99.90;;;;;;5033554;28;20045;-77
2023/05/27 04:28:29;;;;;;;11.68;6.78;;;14.40;99.90;;;;;;5033045;28;20132;-77
2023/05/27 04:30:55;;;;;;;17.15;7.82;;;14.40;99.90;;;;;;5032605;28;20466;-75
2023/05/27 04:33:22;;;;;;;10.15;6.68;;;14.50;99.90;;;;;;5032543;28;20049;-75
2023/05/27 04:35:49;;;;;;;17.30;7.30;;;14.50;99.90;;;;;;5032600;28;20053;-75
2023/05/27 04:38:16;;;;;;;11.80;6.55;;;14.40;99.90;;;;;;5031846;28;20053;-75
2023/05/27 04:40:46;;;;;;;9.75;6.30;;;14.50;99.90;;;;;;5032991;28;20091;-74
2023/05/27 04:43:14;;;;;;;12.70;6.50;;;14.50;99.90;;;;;;5032296;28;20045;-75
2023/05/27 04:45:43;;;;;;;11.10;6.10;;;14.50;99.90;;;;;;5032522;28;20285;-75
2023/05/27 04:48:10;;;;;;;15.40;7.18;;;14.50;99.90;;;;;;5029169;28;20060;-74
2023/05/27 04:50:37;;;;;;;10.93;5.82;;;14.60;99.90;;;;;;5032604;28;20124;-75
2023/05/27 04:53:04;;;;;;;13.38;6.32;;;14.70;99.90;;;;;;5032106;28;20052;-75
2023/05/27 04:55:33;;;;;;;12.13;6.57;;;14.80;99.90;;;;;;5036610;28;20054;-75
2023/05/27 04:58:04;;;;;;;9.48;5.95;;;14.80;99.90;;;;;;5031496;28;20217;-75
2023/05/27 05:00:38;;;;;;;12.60;6.15;;;14.90;99.90;;;;;;5032063;28;20077;-75
2023/05/27 05:03:07;;;;;;;11.23;6.15;;;15.00;99.90;;;;;;5032125;28;20417;-75
2023/05/27 05:05:34;;;;;;;10.88;5.78;;;15.10;99.90;;;;;;5031968;28;20048;-75
2023/05/27 05:08:01;;;;;;;9.50;6.03;;;15.30;99.90;;;;;;5037962;28;20521;-75
2023/05/27 05:10:29;;;;;;;11.60;6.10;;;15.40;99.90;;;;;;5032086;28;20420;-75
2023/05/27 05:12:56;;;;;;;12.40;6.93;;;15.50;99.90;;;;;;5032087;28;20456;-75
2023/05/27 05:15:22;;;;;;;12.82;5.60;;;15.60;99.90;;;;;;5030795;28;20046;-75
2023/05/27 05:17:49;;;;;;;12.65;6.65;;;15.70;99.90;;;;;;5030076;28;20172;-75
2023/05/27 05:20:16;;;;;;;16.30;6.57;;;15.80;99.90;;;;;;5029537;28;20441;-75
2023/05/27 05:22:43;;;;;;;12.45;5.82;;;15.90;99.90;;;;;;5032085;28;20085;-75
2023/05/27 05:25:10;;;;;;;15.68;5.95;;;16.00;99.90;;;;;;5031728;28;20103;-75
2023/05/27 05:27:36;;;;;;;16.30;6.45;;;16.10;99.90;;;;;;5031402;28;20061;-77
2023/05/27 05:30:04;;;;;;;15.48;6.90;;;16.10;99.90;;;;;;5030332;28;20517;-76
2023/05/27 05:32:31;;;;;;;14.55;6.38;;;16.20;99.90;;;;;;5031897;28;20413;-76
2023/05/27 05:34:58;;;;;;;17.98;6.07;;;16.30;99.90;;;;;;5031358;28;20049;-76
2023/05/27 05:37:25;;;;;;;17.60;6.25;;;16.30;99.90;;;;;;5028187;28;20517;-76
2023/05/27 05:39:55;;;;;;;16.80;6.55;;;16.30;99.90;;;;;;5031677;28;20099;-76
2023/05/27 05:42:22;;;;;;;15.60;6.05;;;16.20;99.90;;;;;;5031115;28;20037;-76
2023/05/27 05:44:48;;;;;;;16.73;6.18;;;16.10;99.90;;;;;;5031380;28;20088;-76
2023/05/27 05:47:15;;;;;;;16.27;6.35;;;15.90;99.90;;;;;;5030799;28;20046;-76
2023/05/27 05:49:41;;;;;;;16.75;6.07;;;15.80;99.90;;;;;;5030472;28;20046;-76
2023/05/27 05:52:08;;;;;;;14.75;5.78;;;15.70;99.90;;;;;;5028858;28;20099;-76
2023/05/27 05:54:35;;;;;;;16.92;6.22;;;15.70;99.90;;;;;;5030963;28;20128;-76
2023/05/27 05:57:02;;;;;;;15.73;5.88;;;15.70;99.90;;;;;;5030504;28;20053;-76
2023/05/27 05:59:29;;;;;;;14.35;6.78;;;15.70;99.90;;;;;;5031484;28;20447;-76
2023/05/27 06:01:55;;;;;;;10.98;5.53;;;15.70;99.90;;;;;;5030967;28;20140;-76
2023/05/27 06:04:22;;;;;;;14.73;6.13;;;15.70;99.90;;;;;;5030787;28;20501;-76
2023/05/27 06:06:49;;;;;;;14.88;6.60;;;15.70;99.90;;;;;;5030290;28;20107;-76
2023/05/27 06:09:15;;;;;;;16.00;6.15;;;15.70;99.90;;;;;;5026337;28;20129;-76
2023/05/27 06:11:42;;;;;;;21.90;6.43;;;15.70;99.90;;;;;;5031197;28;20135;-76
2023/05/27 06:14:09;;;;;;;14.27;6.78;;;15.70;99.90;;;;;;5030638;28;20463;-76
2023/05/27 06:16:36;;;;;;;19.35;7.47;;;15.70;99.90;;;;;;5030194;28;20084;-75
2023/05/27 06:19:03;;;;;;;15.18;5.97;;;15.80;99.90;;;;;;5031008;28;20136;-76
2023/05/27 06:21:31;;;;;;;13.95;4.97;;;15.70;99.90;;;;;;5031342;28;20080;-76
2023/05/27 06:23:58;;;;;;;16.27;5.95;;;15.70;99.90;;;;;;5030824;28;20207;-76
2023/05/27 06:26:27;;;;;;;14.35;6.07;;;15.70;99.90;;;;;;5030143;28;20128;-74
2023/05/27 06:28:53;;;;;;;12.52;5.93;;;15.70;99.90;;;;;;5032053;28;20077;-76
2023/05/27 06:31:20;;;;;;;14.30;5.35;;;15.70;99.90;;;;;;5031162;28;20077;-76
2023/05/27 06:33:47;;;;;;;15.48;5.75;;;15.70;99.90;;;;;;5030528;28;20104;-75
2023/05/27 06:36:14;;;;;;;11.77;5.68;;;15.80;99.90;;;;;;5028118;28;20132;-75
2023/05/27 06:38:40;;;;;;;13.48;5.35;;;15.80;99.90;;;;;;5030201;28;20140;-76
2023/05/27 06:41:07;;;;;;;18.30;5.53;;;15.80;99.90;;;;;;5030072;28;20103;-75
2023/05/27 06:43:34;;;;;;;14.77;6.28;;;15.80;99.90;;;;;;5030534;28;20046;-76
2023/05/27 06:46:01;;;;;;;16.73;6.22;;;15.80;99.90;;;;;;5030349;28;20069;-75
2023/05/27 06:48:31;;;;;;;16.95;5.40;;;15.90;99.90;;;;;;5030579;28;20049;-76
2023/05/27 06:50:58;;;;;;;19.75;6.18;;;15.80;99.90;;;;;;5030575;28;20141;-75
2023/05/27 06:53:25;;;;;;;15.45;6.68;;;15.90;99.90;;;;;;5029096;28;20099;-76
2023/05/27 06:55:51;;;;;;;15.30;5.43;;;15.90;99.90;;;;;;5024221;28;20069;-76
2023/05/27 06:58:18;;;;;;;19.13;5.68;;;15.90;99.90;;;;;;5023880;28;20137;-75
2023/05/27 07:00:45;;;;;;;18.20;5.88;;;15.90;99.90;;;;;;5027088;28;20592;-75
2023/05/27 07:03:11;;;;;;;18.85;5.95;;;15.90;99.90;;;;;;5028048;28;20069;-76
2023/05/27 07:05:38;;;;;;;14.02;5.38;;;15.90;99.90;;;;;;5030600;28;20072;-75
2023/05/27 07:08:06;;;;;;;13.38;5.68;;;15.90;99.90;;;;;;5028939;28;20045;-76
2023/05/27 07:10:32;;;;;;;15.25;5.38;;;15.90;99.90;;;;;;5032447;28;20037;-76
2023/05/27 07:12:59;;;;;;;14.80;5.95;;;16.00;99.90;;;;;;5032208;28;20137;-77
2023/05/27 07:15:27;;;;;;;16.92;5.95;;;16.00;99.90;;;;;;5031706;28;20080;-75
2023/05/27 07:17:53;;;;;;;12.68;5.55;;;16.10;99.90;;;;;;5031533;28;20049;-76
2023/05/27 07:20:20;;;;;;;19.67;6.50;;;16.00;99.90;;;;;;5028418;28;20049;-77
2023/05/27 07:22:47;;;;;;;15.75;5.38;;;16.10;99.90;;;;;;5030169;28;20129;-76
2023/05/27 07:25:14;;;;;;;16.17;5.30;;;16.20;99.90;;;;;;5029332;28;20046;-77
2023/05/27 07:27:41;;;;;;;15.27;5.95;;;16.20;99.90;;;;;;5032173;28;20077;-77
2023/05/27 07:30:08;;;;;;;17.15;5.40;;;16.20;99.90;;;;;;5033570;28;20046;-77
2023/05/27 07:32:35;;;;;;;17.70;5.65;;;16.20;99.90;;;;;;5032016;28;20536;-77
2023/05/27 07:35:02;;;;;;;21.35;6.75;;;16.30;99.90;;;;;;5028639;28;20521;-77
2023/05/27 07:37:30;;;;;;;19.90;6.38;;;16.30;99.90;;;;;;5027540;28;20049;-77
2023/05/27 07:39:56;;;;;;;12.90;6.20;;;16.30;99.90;;;;;;5030731;28;20100;-77
2023/05/27 07:42:23;;;;;;;17.00;7.13;;;16.40;99.90;;;;;;5028111;28;20045;-77
2023/05/27 07:44:50;;;;;;;15.27;5.30;;;16.30;99.90;;;;;;5031292;28;20099;-77
2023/05/27 07:47:17;;;;;;;17.55;6.35;;;16.40;99.90;;;;;;5031993;28;20509;-77
2023/05/27 07:49:43;;;;;;;22.20;7.63;;;16.40;99.90;;;;;;5029785;28;20125;-77
2023/05/27 07:52:10;;;;;;;20.20;5.68;;;16.40;99.90;;;;;;5027564;28;20072;-77
2023/05/27 07:54:37;;;;;;;17.30;6.43;;;16.40;99.90;;;;;;5031182;28;20689;-77
2023/05/27 07:57:20;;;;;;;19.75;6.28;;;16.50;99.90;;;;;;5032242;28;20060;-77
2023/05/27 07:59:47;;;;;;;13.05;5.95;;;16.50;99.90;;;;;;5031196;28;20084;-77
2023/05/27 08:02:13;;;;;;;16.25;6.22;;;16.50;99.90;;;;;;5031828;28;20077;-77
2023/05/27 08:04:43;;;;;;;16.33;6.22;;;16.60;99.90;;;;;;5032457;28;20049;-77
2023/05/27 08:07:10;;;;;;;14.55;6.72;;;16.60;99.90;;;;;;5028658;28;20050;-77
2023/05/27 08:09:37;;;;;;;14.90;6.40;;;16.70;99.90;;;;;;5032273;28;20049;-77
2023/05/27 08:12:05;;;;;;;16.67;6.30;;;16.70;99.90;;;;;;5030782;28;20125;-77
2023/05/27 08:14:33;;;;;;;16.42;6.38;;;16.80;99.90;;;;;;5030503;28;20100;-77
2023/05/27 08:17:00;;;;;;;14.52;5.90;;;16.80;99.90;;;;;;5030605;28;20049;-77
2023/05/27 08:19:27;;;;;;;17.35;5.88;;;16.80;99.90;;;;;;5027331;28;20053;-77
2023/05/27 08:21:56;;;;;;;14.57;6.38;;;16.80;99.90;;;;;;5027304;28;20501;-77
2023/05/27 08:24:23;;;;;;;15.95;5.45;;;16.90;99.90;;;;;;5024339;28;20045;-77
2023/05/27 08:26:50;;;;;;;16.35;5.95;;;17.00;99.90;;;;;;5029677;28;20123;-77
2023/05/27 08:29:17;;;;;;;12.60;5.70;;;17.00;99.90;;;;;;5026634;28;20122;-79
2023/05/27 08:31:43;;;;;;;14.52;6.78;;;17.10;99.90;;;;;;5031243;28;20133;-78
2023/05/27 08:34:10;;;;;;;20.63;6.22;;;17.20;99.90;;;;;;5032163;28;20052;-76
2023/05/27 08:36:37;;;;;;;14.52;6.18;;;17.30;99.90;;;;;;5033277;28;20058;-77
2023/05/27 08:39:05;;;;;;;18.63;6.22;;;17.30;99.90;;;;;;5027912;28;20053;-76
2023/05/27 08:41:32;;;;;;;11.35;5.85;;;17.30;99.90;;;;;;5031444;28;20391;-77
2023/05/27 08:43:59;;;;;;;15.45;6.97;;;17.40;99.90;;;;;;5027174;28;20100;-76
2023/05/27 08:46:48;;;;;;;16.83;6.57;;;17.40;99.90;;;;;;5025949;28;20139;-76
2023/05/27 08:49:16;;;;;;;14.32;5.88;;;17.50;99.90;;;;;;5028765;28;20049;-77
2023/05/27 08:51:45;;;;;;;17.88;6.63;;;17.60;99.90;;;;;;5038087;28;20117;-76
2023/05/27 08:54:11;;;;;;;15.85;5.85;;;17.60;99.90;;;;;;5033139;28;20084;-77
2023/05/27 08:56:39;;;;;;;14.90;6.15;;;17.70;99.90;;;;;;5031243;28;20069;-77
2023/05/27 08:59:07;;;;;;;11.82;5.68;;;17.70;99.90;;;;;;5042817;28;20088;-77
2023/05/27 09:01:34;;;;;;;13.10;5.38;;;17.70;99.90;;;;;;5028347;28;20100;-78
2023/05/27 09:04:01;;;;;;;17.10;5.63;;;17.80;99.90;;;;;;5031703;28;20489;-78
2023/05/27 09:06:28;;;;;;;15.43;5.90;;;17.80;99.90;;;;;;5031191;28;20037;-77
2023/05/27 09:08:55;;;;;;;13.75;5.80;;;17.90;99.90;;;;;;5027955;28;20045;-77
2023/05/27 09:11:23;;;;;;;13.32;5.78;;;18.00;99.90;;;;;;5030616;28;20045;-78
2023/05/27 09:13:52;;;;;;;13.88;5.55;;;18.10;99.90;;;;;;5028299;28;20099;-78
2023/05/27 09:16:20;;;;;;;15.80;6.35;;;18.10;99.90;;;;;;5026913;28;20049;-77
2023/05/27 09:18:48;;;;;;;11.45;6.00;;;18.10;99.90;;;;;;5029416;28;20049;-77
2023/05/27 09:21:17;;;;;;;14.93;5.93;;;18.20;99.90;;;;;;5030733;28;20136;-77
2023/05/27 09:23:43;;;;;;;15.77;5.82;;;18.20;99.90;;;;;;5031932;28;20049;-77
2023/05/27 09:26:11;;;;;;;16.27;5.85;;;18.30;99.90;;;;;;5031268;28;20080;-77
2023/05/27 09:28:39;;;;;;;15.65;5.63;;;18.30;99.90;;;;;;5027676;28;20107;-77
2023/05/27 09:31:08;;;;;;;19.63;6.45;;;18.40;99.90;;;;;;5027151;28;20045;-77
2023/05/27 09:33:38;;;;;;;11.90;5.65;;;18.40;99.90;;;;;;5029420;28;20048;-77
2023/05/27 09:36:06;;;;;;;13.98;6.30;;;18.50;99.90;;;;;;5032306;28;20052;-77
2023/05/27 09:38:35;;;;;;;13.18;6.80;;;18.50;99.90;;;;;;5028823;28;20045;-76
2023/05/27 09:41:03;;;;;;;13.95;6.22;;;18.60;99.90;;;;;;5030522;28;20046;-77
2023/05/27 09:43:30;;;;;;;12.48;5.65;;;18.60;99.90;;;;;;5029244;28;20060;-77
2023/05/27 09:46:02;;;;;;;13.95;6.30;;;18.60;99.90;;;;;;5031612;28;20643;-81
2023/05/27 09:48:33;;;;;;;19.08;5.93;;;18.70;99.90;;;;;;5027936;28;20045;-77
2023/05/27 09:51:00;;;;;;;16.63;5.57;;;18.70;99.90;;;;;;5026336;28;20049;-77
2023/05/27 09:53:28;;;;;;;14.65;5.57;;;18.70;99.90;;;;;;5025648;28;20050;-77
2023/05/27 09:55:55;;;;;;;12.95;5.63;;;18.90;99.90;;;;;;5029580;28;20564;-77
2023/05/27 09:58:23;;;;;;;14.07;5.72;;;18.90;99.90;;;;;;5027458;28;20046;-78
2023/05/27 10:00:50;;;;;;;13.88;6.00;;;19.10;99.90;;;;;;5039409;28;20041;-78
2023/05/27 10:03:21;;;;;;;13.45;5.55;;;19.10;99.90;;;;;;5023897;28;20087;-78
2023/05/27 10:05:50;;;;;;;14.55;5.75;;;19.20;99.90;;;;;;5030400;28;20074;-78
2023/05/27 10:08:18;;;;;;;12.87;4.97;;;19.20;99.90;;;;;;5030095;28;20411;-78
2023/05/27 10:10:52;;;;;;;14.85;5.30;;;19.30;99.90;;;;;;5034170;28;20365;-78
2023/05/27 10:13:20;;;;;;;11.90;5.13;;;19.30;99.90;;;;;;5033820;28;20477;-78
2023/05/27 10:15:49;;;;;;;13.27;5.05;;;19.40;99.90;;;;;;5033247;28;20140;-78
2023/05/27 10:18:27;;;;;;;13.90;5.22;;;19.40;99.90;;;;;;5030455;28;20052;-78
2023/05/27 10:20:54;;;;;;;16.48;5.43;;;19.50;99.90;;;;;;5044753;28;20060;-78
2023/05/27 10:23:31;;;;;;;11.55;4.95;;;19.60;99.90;;;;;;5029477;28;20045;-78
2023/05/27 10:26:05;;;;;;;12.25;5.20;;;19.60;99.90;;;;;;5035718;28;20053;-78
2023/05/27 10:28:39;;;;;;;10.63;5.53;;;19.70;99.90;;;;;;5030577;28;20041;-78
2023/05/27 10:31:08;;;;;;;15.07;5.78;;;19.80;99.90;;;;;;5032495;28;20045;-79
2023/05/27 10:33:37;;;;;;;13.60;5.85;;;19.80;99.90;;;;;;5025048;28;20068;-78
2023/05/27 10:36:33;;;;;;;12.30;5.30;;;19.90;99.90;;;;;;5035397;28;20452;-78
2023/05/27 10:39:18;;;;;;;14.52;5.28;;;19.90;99.90;;;;;;5034865;28;20049;-78
2023/05/27 10:41:57;;;;;;;14.45;5.43;;;20.00;99.90;;;;;;5033347;28;20092;-78
2023/05/27 10:44:31;;;;;;;12.18;5.43;;;20.00;99.90;;;;;;5034234;28;20559;-78
2023/05/27 10:47:15;;;;;;;10.38;5.13;;;20.10;99.90;;;;;;5036689;28;20127;-78
2023/05/27 10:49:47;;;;;;;12.88;5.20;;;20.20;99.90;;;;;;5035547;28;20054;-78
2023/05/27 10:52:17;;;;;;;13.57;5.05;;;20.30;99.90;;;;;;5033303;28;20053;-78
2023/05/27 10:54:46;;;;;;;13.90;6.03;;;20.30;99.90;;;;;;5032886;28;20504;-78
2023/05/27 10:57:14;;;;;;;12.52;5.45;;;20.40;99.90;;;;;;5034272;28;20053;-78
2023/05/27 11:00:08;;;;;;;13.27;5.38;;;20.40;99.90;;;;;;5036318;28;20068;-78
2023/05/27 11:02:38;;;;;;;13.90;5.45;;;20.50;99.90;;;;;;5038557;28;20054;-78
2023/05/27 11:05:10;;;;;;;13.15;5.32;;;20.50;99.90;;;;;;5037088;28;20137;-78
2023/05/27 11:07:40;;;;;;;11.48;5.15;;;20.50;99.90;;;;;;5034852;28;20073;-78
2023/05/27 11:10:08;;;;;;;11.25;5.47;;;20.60;99.90;;;;;;5035067;28;20045;-78
2023/05/27 11:12:35;;;;;;;13.43;4.82;;;20.60;99.90;;;;;;5035842;28;20545;-77
2023/05/27 11:15:03;;;;;;;9.35;5.35;;;20.70;99.90;;;;;;5035520;28;20045;-78
2023/05/27 11:17:30;;;;;;;13.32;4.93;;;20.70;99.90;;;;;;5035421;28;20080;-78
2023/05/27 11:19:58;;;;;;;8.85;4.50;;;20.80;99.90;;;;;;5032398;28;20049;-78
2023/05/27 11:22:26;;;;;;;11.38;4.88;;;20.90;99.90;;;;;;5032322;28;20080;-78
2023/05/27 11:25:00;;;;;;;10.20;4.60;;;20.90;99.90;;;;;;5035327;28;20057;-79
2023/05/27 11:27:38;;;;;;;11.02;5.05;;;21.00;99.90;;;;;;5031936;28;20567;-79
2023/05/27 11:30:12;;;;;;;15.75;4.85;;;21.00;99.90;;;;;;5035426;28;20124;-79
2023/05/27 11:32:41;;;;;;;12.15;5.00;;;21.10;99.90;;;;;;5034836;28;20050;-79
2023/05/27 11:35:14;;;;;;;12.90;5.60;;;21.10;99.90;;;;;;5034471;28;20045;-79
2023/05/27 11:37:51;;;;;;;14.52;5.35;;;21.20;99.90;;;;;;5032483;28;20093;-79
2023/05/27 11:40:18;;;;;;;12.52;5.70;;;21.30;99.90;;;;;;5033103;28;20084;-79
2023/05/27 11:42:46;;;;;;;11.55;5.03;;;21.30;99.90;;;;;;5035535;28;20459;-78
2023/05/27 11:45:17;;;;;;;15.60;5.80;;;21.40;99.90;;;;;;5031625;28;20468;-79
2023/05/27 11:47:47;;;;;;;14.25;5.10;;;21.40;99.90;;;;;;5033887;28;20072;-79
2023/05/27 11:50:21;;;;;;;9.63;5.07;;;21.50;99.90;;;;;;5034951;28;20049;-79
2023/05/27 11:52:55;;;;;;;14.70;5.65;;;21.50;99.90;;;;;;5037297;28;20046;-78
2023/05/27 11:55:23;;;;;;;18.13;5.45;;;21.50;99.90;;;;;;5033090;28;20099;-78
2023/05/27 11:57:50;;;;;;;11.93;5.13;;;21.50;99.90;;;;;;5033025;28;20051;-79
2023/05/27 12:00:17;;;;;;;11.95;5.00;;;21.60;99.90;;;;;;5037819;28;20152;-79
2023/05/27 12:02:44;;;;;;;15.70;5.35;;;21.70;99.90;;;;;;5032346;28;20053;-79
2023/05/27 12:05:11;;;;;;;13.15;4.90;;;21.70;99.90;;;;;;5030959;28;20072;-79
2023/05/27 12:07:51;;;;;;;13.05;5.00;;;21.70;99.90;;;;;;5027224;28;20137;-77
2023/05/27 12:10:18;;;;;;;14.48;5.13;;;21.80;99.90;;;;;;5031694;28;20108;-79
2023/05/27 12:12:44;;;;;;;15.05;5.25;;;21.80;99.90;;;;;;5031867;28;20054;-79
2023/05/27 12:15:11;;;;;;;13.35;5.72;;;21.90;99.90;;;;;;5028834;28;20100;-78
2023/05/27 12:17:38;;;;;;;10.85;4.78;;;21.90;99.90;;;;;;5031536;28;20057;-79
2023/05/27 12:20:06;;;;;;;12.55;4.65;;;22.00;99.90;;;;;;5031974;28;20084;-78
2023/05/27 12:22:33;;;;;;;17.98;5.60;;;22.00;99.90;;;;;;5029199;28;20052;-78
2023/05/27 12:24:59;;;;;;;11.75;4.47;;;22.00;99.90;;;;;;5036221;28;20053;-79
2023/05/27 12:27:26;;;;;;;10.02;4.65;;;22.10;99.90;;;;;;5031524;28;20041;-79
2023/05/27 12:29:53;;;;;;;13.77;5.47;;;22.10;99.90;;;;;;5029865;28;20052;-78
2023/05/27 12:32:20;;;;;;;13.18;5.18;;;22.20;99.90;;;;;;5032153;28;20072;-79
2023/05/27 12:34:46;;;;;;;17.45;5.40;;;22.20;99.90;;;;;;5031790;28;20050;-79
2023/05/27 12:37:13;;;;;;;10.05;5.03;;;22.20;99.90;;;;;;5034632;28;20133;-78
2023/05/27 12:39:40;;;;;;;13.38;4.70;;;22.30;99.90;;;;;;5035298;28;20080;-79
2023/05/27 12:42:07;;;;;;;11.05;4.88;;;22.30;99.90;;;;;;5033346;28;20049;-79
2023/05/27 12:44:33;;;;;;;10.50;4.50;;;22.30;99.90;;;;;;5033392;28;20087;-79